Terminal Aerodrome Forecast
Issued by NWS

Home | Current Version | Previous Version | Text Only | Print | Product List | Glossary On
Versions: 1 2 3 4 5 6 7 8 9 10 11 12
000
FTUS45 KFGZ 190520
TAFPGA
TAF
KPGA 190520Z 1906/2006 VRB04KT P6SM BKN250
     FM191200 23006KT P6SM SCT060 OVC090
     FM191700 23010KT P6SM VCSH OVC040
      TEMPO 1919/1923 4SM -SHRA OVC030
     FM192300 23010KT 5SM -SHRA OVC030=

USA.gov is the U.S. government's official web portal to all federal, state and local government web resources and services.